createdAt,value
2019-04-01T00:00:33.504Z,2.70
2019-04-01T00:01:46.146Z,2.72
2019-04-01T00:02:51.207Z,2.85
2019-04-01T00:03:56.496Z,2.30
2019-04-01T00:05:01.468Z,1.80
2019-04-01T00:06:06.566Z,1.95
2019-04-01T00:07:13.536Z,2.77
2019-04-01T00:08:18.890Z,2.60
2019-04-01T00:09:24.139Z,2.37
2019-04-01T00:10:29.194Z,2.90
2019-04-01T00:11:34.263Z,2.92
2019-04-01T00:12:39.266Z,3.00
2019-04-01T00:13:44.633Z,2.95
2019-04-01T00:14:50.077Z,2.25
2019-04-01T00:15:55.211Z,2.42
2019-04-01T00:17:00.799Z,3.02
2019-04-01T00:18:06.229Z,2.37
2019-04-01T00:19:11.339Z,1.98
2019-04-01T00:20:16.400Z,2.52
2019-04-01T00:21:21.492Z,2.80
2019-04-01T00:22:27.296Z,2.02
2019-04-01T00:23:32.312Z,3.20
2019-04-01T00:24:37.385Z,2.47
2019-04-01T00:25:42.422Z,2.42
2019-04-01T00:26:47.704Z,3.27
2019-04-01T00:27:53.102Z,3.90
2019-04-01T00:28:58.420Z,2.55
2019-04-01T00:30:03.567Z,2.10
2019-04-01T00:31:09.060Z,2.08
2019-04-01T00:32:14.477Z,2.05
2019-04-01T00:33:19.593Z,3.10
2019-04-01T00:34:24.567Z,2.22
2019-04-01T00:35:29.560Z,2.90
2019-04-01T00:36:34.544Z,2.22
2019-04-01T00:37:39.875Z,2.45
2019-04-01T00:38:45.059Z,2.60
2019-04-01T00:39:50.141Z,2.50
2019-04-01T00:40:55.532Z,2.72
2019-04-01T00:42:06.452Z,2.30
2019-04-01T00:43:15.607Z,2.50
2019-04-01T00:44:20.602Z,2.65
2019-04-01T00:45:26.034Z,2.55
2019-04-01T00:46:32.838Z,4.28
2019-04-01T00:47:37.854Z,2.87
2019-04-01T00:48:42.776Z,2.30
2019-04-01T00:49:48.290Z,2.27
2019-04-01T00:50:53.366Z,2.75
2019-04-01T00:51:58.473Z,2.30
2019-04-01T00:53:03.522Z,2.30
2019-04-01T00:54:08.702Z,2.45
2019-04-01T00:55:13.759Z,2.12
2019-04-01T00:56:18.873Z,2.40
2019-04-01T00:57:23.912Z,3.05
2019-04-01T00:58:30.702Z,2.08
2019-04-01T00:59:36.168Z,2.52
2019-04-01T01:00:41.505Z,3.12
2019-04-01T01:01:46.700Z,2.42
2019-04-01T01:02:52.201Z,2.52
2019-04-01T01:03:57.330Z,2.60
2019-04-01T01:05:02.466Z,2.77
2019-04-01T01:06:07.646Z,2.50
2019-04-01T01:07:12.605Z,2.47
2019-04-01T01:08:17.976Z,2.37
2019-04-01T01:09:23.401Z,2.02
2019-04-01T01:10:28.677Z,3.58
2019-04-01T01:11:33.904Z,2.58
2019-04-01T01:12:39.236Z,2.50
2019-04-01T01:13:44.317Z,2.00
2019-04-01T01:14:49.411Z,2.33
2019-04-01T01:15:54.554Z,2.75
2019-04-01T01:16:59.761Z,1.95
2019-04-01T01:18:04.885Z,1.70
2019-04-01T01:19:09.982Z,2.45
2019-04-01T01:20:15.133Z,2.90
2019-04-01T01:21:20.856Z,2.20
2019-04-01T01:22:25.910Z,3.22
2019-04-01T01:23:30.896Z,1.70
2019-04-01T01:24:36.513Z,2.50
2019-04-01T01:25:41.491Z,2.65
2019-04-01T01:26:46.882Z,2.47
2019-04-01T01:27:51.969Z,2.42
2019-04-01T01:28:57.435Z,2.35
2019-04-01T01:30:02.502Z,1.70
2019-04-01T01:31:07.536Z,3.05
2019-04-01T01:32:12.591Z,2.87
2019-04-01T01:33:17.821Z,1.95
2019-04-01T01:34:23.423Z,2.65
2019-04-01T01:35:28.589Z,2.25
2019-04-01T01:36:34.005Z,2.10
2019-04-01T01:37:39.356Z,2.65
2019-04-01T01:38:44.325Z,2.60
2019-04-01T01:39:49.452Z,2.30
2019-04-01T01:40:54.792Z,3.22
2019-04-01T01:42:00.040Z,3.20
2019-04-01T01:43:05.130Z,1.90
2019-04-01T01:44:10.279Z,2.45
2019-04-01T01:45:15.387Z,2.65
2019-04-01T01:46:20.846Z,2.62
2019-04-01T01:47:25.953Z,2.50
2019-04-01T01:48:31.490Z,2.65
2019-04-01T01:49:36.538Z,2.50
2019-04-01T01:50:41.531Z,2.70
2019-04-01T01:51:46.508Z,2.20
2019-04-01T01:52:51.648Z,2.20
2019-04-01T01:53:56.673Z,2.00
2019-04-01T01:55:02.004Z,2.80
2019-04-01T01:56:07.059Z,2.75
2019-04-01T01:57:12.116Z,2.10
2019-04-01T01:58:17.138Z,1.90
2019-04-01T01:59:22.383Z,3.35
2019-04-01T02:00:28.500Z,2.22
2019-04-01T02:01:33.562Z,2.25
2019-04-01T02:02:38.781Z,1.65
2019-04-01T02:03:44.109Z,2.47
2019-04-01T02:04:49.160Z,2.30
2019-04-01T02:05:54.369Z,2.42
2019-04-01T02:06:59.725Z,3.00
2019-04-01T02:08:05.160Z,2.02
2019-04-01T02:09:12.989Z,2.00
2019-04-01T02:10:18.082Z,2.33
2019-04-01T02:11:23.445Z,2.30
2019-04-01T02:12:28.533Z,3.02
2019-04-01T02:13:33.669Z,2.08
2019-04-01T02:14:38.643Z,2.45
2019-04-01T02:15:44.394Z,1.70
2019-04-01T02:16:49.804Z,1.92
2019-04-01T02:17:54.942Z,4.65
2019-04-01T02:19:00.304Z,2.60
2019-04-01T02:20:06.149Z,2.55
2019-04-01T02:21:11.182Z,2.50
2019-04-01T02:22:16.156Z,3.92
2019-04-01T02:23:21.656Z,2.60
2019-04-01T02:24:26.651Z,2.15
2019-04-01T02:25:31.714Z,2.70
2019-04-01T02:26:36.731Z,2.35
2019-04-01T02:27:41.840Z,1.90
2019-04-01T02:28:47.133Z,1.90
2019-04-01T02:29:52.297Z,2.58
2019-04-01T02:30:57.309Z,2.72
2019-04-01T02:32:02.641Z,2.62
2019-04-01T02:33:08.004Z,2.35
2019-04-01T02:34:12.956Z,3.00
2019-04-01T02:35:18.253Z,2.85
2019-04-01T02:36:23.643Z,2.62
2019-04-01T02:37:28.669Z,2.83
2019-04-01T02:38:33.734Z,2.60
2019-04-01T02:39:38.762Z,2.60
2019-04-01T02:40:44.177Z,2.40
2019-04-01T02:41:49.400Z,1.87
2019-04-01T02:42:54.482Z,2.33
2019-04-01T02:43:59.522Z,2.75
2019-04-01T02:45:04.954Z,2.47
2019-04-01T02:46:10.071Z,2.15
2019-04-01T02:47:15.529Z,2.90
2019-04-01T02:48:20.551Z,1.82
2019-04-01T02:49:25.860Z,2.58
2019-04-01T02:50:31.305Z,2.20
2019-04-01T02:51:36.840Z,2.75
2019-04-01T02:52:41.920Z,2.45
2019-04-01T02:53:46.963Z,2.90
2019-04-01T02:54:52.317Z,2.45
2019-04-01T02:55:57.285Z,1.85
2019-04-01T02:57:02.402Z,2.50
2019-04-01T02:58:07.512Z,2.30
2019-04-01T02:59:12.556Z,2.75
2019-04-01T03:00:17.906Z,2.33
2019-04-01T03:01:23.196Z,2.80
2019-04-01T03:02:28.504Z,2.72
2019-04-01T03:03:34.099Z,3.67
2019-04-01T03:04:39.327Z,2.15
2019-04-01T03:05:45.221Z,2.08
2019-04-01T03:06:50.444Z,2.37
2019-04-01T03:07:55.569Z,2.67
2019-04-01T03:09:00.749Z,2.05
2019-04-01T03:10:06.327Z,2.42
2019-04-01T03:11:11.745Z,2.20
2019-04-01T03:12:17.067Z,3.47
2019-04-01T03:13:22.181Z,2.12
2019-04-01T03:14:27.272Z,2.75
2019-04-01T03:15:32.642Z,4.10
2019-04-01T03:16:37.732Z,2.30
2019-04-01T03:17:43.117Z,2.27
2019-04-01T03:18:48.351Z,2.55
2019-04-01T03:19:53.475Z,2.30
2019-04-01T03:20:58.861Z,2.75
2019-04-01T03:22:03.886Z,2.47
2019-04-01T03:23:09.098Z,3.30
2019-04-01T03:24:14.452Z,2.35
2019-04-01T03:25:19.483Z,2.92
2019-04-01T03:26:24.943Z,2.98
2019-04-01T03:27:30.222Z,3.08
2019-04-01T03:28:35.275Z,2.35
2019-04-01T03:29:40.404Z,2.62
2019-04-01T03:30:45.852Z,2.45
2019-04-01T03:31:50.934Z,2.02
2019-04-01T03:32:56.878Z,1.90
2019-04-01T03:34:01.975Z,2.08
2019-04-01T03:35:07.924Z,2.40
2019-04-01T03:36:13.518Z,2.02
2019-04-01T03:37:18.545Z,3.10
2019-04-01T03:38:27.845Z,2.85
2019-04-01T03:39:31.263Z,2.40
2019-04-01T03:40:36.305Z,2.42
2019-04-01T03:41:41.338Z,2.08
2019-04-01T03:42:46.764Z,2.50
2019-04-01T03:43:52.494Z,2.40
2019-04-01T03:44:57.904Z,1.75
2019-04-01T03:46:03.025Z,2.25
2019-04-01T03:47:08.245Z,2.25
2019-04-01T03:48:13.345Z,2.35
2019-04-01T03:49:18.429Z,2.60
2019-04-01T03:50:23.508Z,2.20
2019-04-01T03:51:28.560Z,2.40
2019-04-01T03:52:33.601Z,2.12
2019-04-01T03:53:38.670Z,2.47
2019-04-01T03:54:44.039Z,2.95
2019-04-01T03:55:49.136Z,2.40
2019-04-01T03:56:54.515Z,2.72
2019-04-01T03:57:59.559Z,2.80
2019-04-01T03:59:04.797Z,2.80
2019-04-01T04:00:10.215Z,2.10
2019-04-01T04:01:15.266Z,2.30
2019-04-01T04:02:20.483Z,2.42
2019-04-01T04:03:25.497Z,2.72
2019-04-01T04:04:30.923Z,2.65
2019-04-01T04:05:36.325Z,2.62
2019-04-01T04:06:41.817Z,2.20
2019-04-01T04:07:46.910Z,2.95
2019-04-01T04:08:52.118Z,2.17
2019-04-01T04:09:57.599Z,3.00
2019-04-01T04:11:02.706Z,2.00
2019-04-01T04:12:08.194Z,2.30
2019-04-01T04:13:13.606Z,2.75
2019-04-01T04:14:18.692Z,2.70
2019-04-01T04:15:24.191Z,3.40
2019-04-01T04:16:29.578Z,2.75
2019-04-01T04:17:34.766Z,2.60
2019-04-01T04:18:39.836Z,2.30
2019-04-01T04:19:45.231Z,2.80
2019-04-01T04:20:50.390Z,2.75
2019-04-01T04:21:55.532Z,2.70
2019-04-01T04:23:00.615Z,2.10
2019-04-01T04:24:05.777Z,2.60
2019-04-01T04:25:11.311Z,3.20
2019-04-01T04:26:16.453Z,2.35
2019-04-01T04:27:21.513Z,3.10
2019-04-01T04:28:26.627Z,2.90
2019-04-01T04:29:31.737Z,1.85
2019-04-01T04:30:36.833Z,3.02
2019-04-01T04:31:42.345Z,2.90
2019-04-01T04:32:47.428Z,2.67
2019-04-01T04:33:52.447Z,2.50
2019-04-01T04:34:57.879Z,2.75
2019-04-01T04:36:03.373Z,3.05
2019-04-01T04:37:08.574Z,2.90
2019-04-01T04:38:13.941Z,2.20
2019-04-01T04:39:19.088Z,2.22
2019-04-01T04:40:24.510Z,2.55
2019-04-01T04:41:29.978Z,2.83
2019-04-01T04:42:35.006Z,2.25
2019-04-01T04:43:40.394Z,2.65
2019-04-01T04:44:45.657Z,2.67
2019-04-01T04:45:50.644Z,2.52
2019-04-01T04:46:56.272Z,2.33
2019-04-01T04:48:01.377Z,2.17
2019-04-01T04:49:06.324Z,3.60
2019-04-01T04:50:11.845Z,2.70
2019-04-01T04:51:16.892Z,3.15
2019-04-01T04:52:21.978Z,2.85
2019-04-01T04:53:27.890Z,2.60
2019-04-01T04:54:32.930Z,2.72
2019-04-01T04:55:38.009Z,3.12
2019-04-01T04:56:43.066Z,2.95
2019-04-01T04:57:48.070Z,2.87
2019-04-01T04:58:53.009Z,2.40
2019-04-01T04:59:58.105Z,2.42
2019-04-01T05:01:03.166Z,3.15
2019-04-01T05:02:09.105Z,3.37
2019-04-01T05:03:14.410Z,2.60
2019-04-01T05:04:19.667Z,3.05
2019-04-01T05:05:25.061Z,2.98
2019-04-01T05:06:30.163Z,3.60
2019-04-01T05:07:35.219Z,2.25
2019-04-01T05:08:40.380Z,3.05
2019-04-01T05:09:45.514Z,2.50
2019-04-01T05:10:50.553Z,47.53
2019-04-01T05:11:55.548Z,5.10
2019-04-01T05:13:00.703Z,3.37
2019-04-01T05:14:06.179Z,2.92
2019-04-01T05:15:11.466Z,2.30
2019-04-01T05:16:17.150Z,3.00
2019-04-01T05:17:22.553Z,2.17
2019-04-01T05:18:27.559Z,2.20
2019-04-01T05:19:32.917Z,3.15
2019-04-01T05:20:42.209Z,2.75
2019-04-01T05:21:47.778Z,2.50
2019-04-01T05:22:53.692Z,2.90
2019-04-01T05:23:59.605Z,2.60
2019-04-01T05:25:04.862Z,4.42
2019-04-01T05:26:11.220Z,2.17
2019-04-01T05:27:17.776Z,2.33
2019-04-01T05:28:24.287Z,3.08
2019-04-01T05:29:31.125Z,1.77
2019-04-01T05:30:37.800Z,2.20
2019-04-01T05:31:46.065Z,3.12
2019-04-01T05:32:52.946Z,2.75
2019-04-01T05:34:01.527Z,2.42
2019-04-01T05:35:09.701Z,2.80
2019-04-01T05:36:15.454Z,2.72
2019-04-01T05:37:20.990Z,3.45
2019-04-01T05:38:26.132Z,2.85
2019-04-01T05:39:31.860Z,2.50
2019-04-01T05:40:37.337Z,2.85
2019-04-01T05:41:42.643Z,3.20
2019-04-01T05:42:47.862Z,3.02
2019-04-01T05:43:54.269Z,3.12
2019-04-01T05:44:59.417Z,2.65
2019-04-01T05:46:04.684Z,3.67
2019-04-01T05:47:09.835Z,4.25
2019-04-01T05:48:16.019Z,3.62
2019-04-01T05:49:21.175Z,2.62
2019-04-01T05:50:26.434Z,3.47
2019-04-01T05:51:32.184Z,3.02
2019-04-01T05:52:37.341Z,2.60
2019-04-01T05:53:42.680Z,3.20
2019-04-01T05:54:48.266Z,2.10
2019-04-01T05:55:54.366Z,3.08
2019-04-01T05:56:59.663Z,2.37
2019-04-01T05:58:04.781Z,3.05
2019-04-01T05:59:09.981Z,3.17
2019-04-01T06:00:21.214Z,4.90
2019-04-01T06:01:30.473Z,2.62
2019-04-01T06:02:36.008Z,3.10
2019-04-01T06:03:42.115Z,3.98
2019-04-01T06:04:47.355Z,3.22
2019-04-01T06:05:52.503Z,2.72
2019-04-01T06:06:57.618Z,3.17
2019-04-01T06:08:03.016Z,3.30
2019-04-01T06:09:08.991Z,2.55
2019-04-01T06:10:14.452Z,2.92
2019-04-01T06:11:19.890Z,2.85
2019-04-01T06:12:25.041Z,2.92
2019-04-01T06:13:30.187Z,3.52
2019-04-01T06:14:35.531Z,2.77
2019-04-01T06:15:40.667Z,4.05
2019-04-01T06:16:45.658Z,3.10
2019-04-01T06:17:50.796Z,2.83
2019-04-01T06:18:56.154Z,3.40
2019-04-01T06:20:01.485Z,3.35
2019-04-01T06:21:07.187Z,3.42
2019-04-01T06:22:12.277Z,2.70
2019-04-01T06:23:17.511Z,3.27
2019-04-01T06:24:24.647Z,3.05
2019-04-01T06:25:29.669Z,4.03
2019-04-01T06:26:35.511Z,3.22
2019-04-01T06:27:41.596Z,3.15
2019-04-01T06:28:46.959Z,3.80
2019-04-01T06:29:52.064Z,3.00
2019-04-01T06:30:57.296Z,3.60
2019-04-01T06:32:02.772Z,3.10
2019-04-01T06:33:07.879Z,3.58
2019-04-01T06:34:13.043Z,3.40
2019-04-01T06:35:18.334Z,3.40
2019-04-01T06:36:23.451Z,3.55
2019-04-01T06:37:28.488Z,3.30
2019-04-01T06:38:33.952Z,3.45
2019-04-01T06:39:39.809Z,2.90
2019-04-01T06:40:44.921Z,3.62
2019-04-01T06:41:50.274Z,3.37
2019-04-01T06:42:55.684Z,2.77
2019-04-01T06:44:01.029Z,3.50
2019-04-01T06:45:07.020Z,3.72
2019-04-01T06:46:12.801Z,3.90
2019-04-01T06:47:17.957Z,3.60
2019-04-01T06:48:23.262Z,3.77
2019-04-01T06:49:28.498Z,3.40
2019-04-01T06:50:33.960Z,3.70
2019-04-01T06:51:39.088Z,2.62
2019-04-01T06:52:44.312Z,3.75
2019-04-01T06:53:49.423Z,2.95
2019-04-01T06:54:54.557Z,3.50
2019-04-01T06:55:59.674Z,4.90
2019-04-01T06:57:04.928Z,3.45
2019-04-01T06:58:11.893Z,3.55
2019-04-01T06:59:16.959Z,4.25
2019-04-01T07:00:22.149Z,3.77
2019-04-01T07:01:27.183Z,4.45
2019-04-01T07:02:32.355Z,3.30
2019-04-01T07:03:37.498Z,4.10
2019-04-01T07:04:43.130Z,3.60
2019-04-01T07:05:48.575Z,3.92
2019-04-01T07:06:54.298Z,4.17
2019-04-01T07:07:59.875Z,3.20
2019-04-01T07:09:06.651Z,4.08
2019-04-01T07:10:12.040Z,3.33
2019-04-01T07:11:17.557Z,3.70
2019-04-01T07:12:23.007Z,3.72
2019-04-01T07:13:28.566Z,3.27
2019-04-01T07:14:33.757Z,3.35
2019-04-01T07:15:39.213Z,3.33
2019-04-01T07:16:44.571Z,3.90
2019-04-01T07:17:49.732Z,4.60
2019-04-01T07:18:54.800Z,3.35
2019-04-01T07:19:59.860Z,3.50
2019-04-01T07:21:05.146Z,3.33
2019-04-01T07:22:10.262Z,4.17
2019-04-01T07:23:15.427Z,4.22
2019-04-01T07:24:20.565Z,3.70
2019-04-01T07:25:25.862Z,3.85
2019-04-01T07:26:31.749Z,3.65
2019-04-01T07:27:36.844Z,4.53
2019-04-01T07:28:42.420Z,3.92
2019-04-01T07:29:47.563Z,4.87
2019-04-01T07:30:53.025Z,3.72
2019-04-01T07:31:58.140Z,4.00
2019-04-01T07:33:03.171Z,4.42
2019-04-01T07:34:08.493Z,5.50
2019-04-01T07:35:13.819Z,3.42
2019-04-01T07:36:19.656Z,3.62
2019-04-01T07:37:24.769Z,3.70
2019-04-01T07:38:29.862Z,4.40
2019-04-01T07:39:35.004Z,4.08
2019-04-01T07:40:40.542Z,4.40
2019-04-01T07:41:45.834Z,3.77
2019-04-01T07:42:50.953Z,4.20
2019-04-01T07:43:56.057Z,4.00
2019-04-01T07:45:01.495Z,4.95
2019-04-01T07:46:08.310Z,3.47
2019-04-01T07:47:13.722Z,4.58
2019-04-01T07:48:19.628Z,4.28
2019-04-01T07:49:24.609Z,4.20
2019-04-01T07:50:29.714Z,4.25
2019-04-01T07:51:38.330Z,3.55
2019-04-01T07:52:42.029Z,4.03
2019-04-01T07:53:47.171Z,4.20
2019-04-01T07:54:52.211Z,4.12
2019-04-01T07:55:57.198Z,4.10
2019-04-01T07:57:02.339Z,4.85
2019-04-01T07:58:07.367Z,4.08
2019-04-01T07:59:12.410Z,3.90
2019-04-01T08:00:17.661Z,4.22
2019-04-01T08:01:22.848Z,4.50
2019-04-01T08:02:27.896Z,4.30
2019-04-01T08:03:33.021Z,3.90
2019-04-01T08:04:38.172Z,4.35
2019-04-01T08:05:43.282Z,4.37
2019-04-01T08:06:48.766Z,4.37
2019-04-01T08:07:54.047Z,4.03
2019-04-01T08:08:59.222Z,5.53
2019-04-01T08:10:05.482Z,5.25
2019-04-01T08:11:10.483Z,5.05
2019-04-01T08:12:15.530Z,4.75
2019-04-01T08:13:20.633Z,5.35
2019-04-01T08:14:25.779Z,4.55
2019-04-01T08:15:31.296Z,3.65
2019-04-01T08:16:36.614Z,4.20
2019-04-01T08:17:42.274Z,4.15
2019-04-01T08:18:47.986Z,4.65
2019-04-01T08:19:52.954Z,4.05
2019-04-01T08:20:57.886Z,4.65
2019-04-01T08:22:02.928Z,5.60
2019-04-01T08:23:08.189Z,4.75
2019-04-01T08:24:13.243Z,3.80
2019-04-01T08:25:18.608Z,4.97
2019-04-01T08:26:23.874Z,4.95
2019-04-01T08:27:28.842Z,4.47
2019-04-01T08:28:33.845Z,4.53
2019-04-01T08:29:39.221Z,4.85
2019-04-01T08:30:44.338Z,4.65
2019-04-01T08:31:49.699Z,4.85
2019-04-01T08:32:54.790Z,3.98
2019-04-01T08:34:00.377Z,4.35
2019-04-01T08:35:06.035Z,5.08
2019-04-01T08:36:11.187Z,4.95
2019-04-01T08:37:16.187Z,4.40
2019-04-01T08:38:21.548Z,5.15
2019-04-01T08:39:26.589Z,4.80
2019-04-01T08:40:31.603Z,5.50
2019-04-01T08:41:36.821Z,5.83
2019-04-01T08:42:41.999Z,5.08
2019-04-01T08:43:47.309Z,5.70
2019-04-01T08:44:52.704Z,5.00
2019-04-01T08:45:58.047Z,5.12
2019-04-01T08:47:03.407Z,5.30
2019-04-01T08:48:08.562Z,5.45
2019-04-01T08:49:13.528Z,5.90
2019-04-01T08:50:19.812Z,6.75
2019-04-01T08:51:24.929Z,5.37
2019-04-01T08:52:30.001Z,5.03
2019-04-01T08:53:36.132Z,6.12
2019-04-01T08:54:41.759Z,6.30
2019-04-01T08:55:46.708Z,5.30
2019-04-01T08:56:51.833Z,6.25
2019-04-01T08:57:57.562Z,5.60
2019-04-01T08:59:02.673Z,5.17
2019-04-01T09:00:09.732Z,6.58
2019-04-01T09:01:15.071Z,5.92
2019-04-01T09:02:21.583Z,5.67
2019-04-01T09:03:26.914Z,5.60
2019-04-01T09:04:32.012Z,6.35
2019-04-01T09:05:37.071Z,7.35
2019-04-01T09:06:42.129Z,6.53
2019-04-01T09:07:47.140Z,6.65
2019-04-01T09:08:54.125Z,7.15
2019-04-01T09:10:00.397Z,6.60
2019-04-01T09:11:05.738Z,5.72
2019-04-01T09:12:11.117Z,6.95
2019-04-01T09:13:16.609Z,20.60
2019-04-01T09:14:21.844Z,7.92
2019-04-01T09:15:27.195Z,7.15
2019-04-01T09:16:33.357Z,6.10
2019-04-01T09:17:40.208Z,7.90
2019-04-01T09:18:45.083Z,7.55
2019-04-01T09:19:50.000Z,6.97
2019-04-01T09:20:54.958Z,7.40
2019-04-01T09:22:00.362Z,7.67
2019-04-01T09:23:05.389Z,7.20
2019-04-01T09:24:10.448Z,7.78
2019-04-01T09:25:15.987Z,8.13
2019-04-01T09:26:21.473Z,8.70
2019-04-01T09:27:26.908Z,7.78
2019-04-01T09:28:31.984Z,8.05
2019-04-01T09:29:36.944Z,7.40
2019-04-01T09:30:42.281Z,8.15
2019-04-01T09:31:47.729Z,8.75
2019-04-01T09:32:52.773Z,8.60
2019-04-01T09:33:57.786Z,7.67
2019-04-01T09:35:03.089Z,8.78
2019-04-01T09:36:08.087Z,8.10
2019-04-01T09:37:13.143Z,8.95
2019-04-01T09:38:18.189Z,8.58
2019-04-01T09:39:23.176Z,7.78
2019-04-01T09:40:28.600Z,7.80
2019-04-01T09:41:33.488Z,7.58
2019-04-01T09:42:38.616Z,8.30
2019-04-01T09:43:43.684Z,7.12
2019-04-01T09:44:48.630Z,9.03
2019-04-01T09:45:53.699Z,7.62
2019-04-01T09:46:58.928Z,7.45
2019-04-01T09:48:04.329Z,7.42
2019-04-01T09:49:09.294Z,8.18
2019-04-01T09:50:14.693Z,8.35
2019-04-01T09:51:19.734Z,7.65
2019-04-01T09:52:24.820Z,7.50
2019-04-01T09:53:29.886Z,8.05
2019-04-01T09:54:35.109Z,8.33
2019-04-01T09:55:40.544Z,8.68
2019-04-01T09:56:45.474Z,7.85
2019-04-01T09:57:50.480Z,8.55
2019-04-01T09:58:55.810Z,8.33
2019-04-01T10:00:00.915Z,7.40
2019-04-01T10:01:05.945Z,8.38
2019-04-01T10:02:11.692Z,8.10
2019-04-01T10:03:16.623Z,8.65
2019-04-01T10:04:21.709Z,8.50
2019-04-01T10:05:27.616Z,9.40
2019-04-01T10:06:32.725Z,7.35
2019-04-01T10:07:38.858Z,8.70
2019-04-01T10:08:44.276Z,8.18
2019-04-01T10:09:49.412Z,8.30
2019-04-01T10:10:54.502Z,8.95
2019-04-01T10:11:59.480Z,8.03
2019-04-01T10:13:04.633Z,8.55
2019-04-01T10:14:09.768Z,7.80
2019-04-01T10:15:14.867Z,8.68
2019-04-01T10:16:20.039Z,8.33
2019-04-01T10:17:25.201Z,7.70
2019-04-01T10:18:30.781Z,8.40
2019-04-01T10:19:36.287Z,8.35
2019-04-01T10:20:41.361Z,8.63
2019-04-01T10:21:46.458Z,8.65
2019-04-01T10:22:51.474Z,9.28
2019-04-01T10:23:56.473Z,9.55
2019-04-01T10:25:01.374Z,8.53
2019-04-01T10:26:06.511Z,7.87
2019-04-01T10:27:11.870Z,10.08
2019-04-01T10:28:17.356Z,8.98
2019-04-01T10:29:22.419Z,9.23
2019-04-01T10:30:27.939Z,9.63
2019-04-01T10:31:33.377Z,9.38
2019-04-01T10:32:38.826Z,7.87
2019-04-01T10:33:43.882Z,9.38
2019-04-01T10:34:49.201Z,9.85
2019-04-01T10:35:54.576Z,9.05
2019-04-01T10:36:59.577Z,8.95
2019-04-01T10:38:05.262Z,10.28
2019-04-01T10:39:10.307Z,8.20
2019-04-01T10:40:15.916Z,10.13
2019-04-01T10:41:21.014Z,9.40
2019-04-01T10:42:26.132Z,8.98
2019-04-01T10:43:31.116Z,8.53
2019-04-01T10:44:36.039Z,9.60
2019-04-01T10:45:41.192Z,10.30
2019-04-01T10:46:47.015Z,8.20
2019-04-01T10:47:52.292Z,8.78
2019-04-01T10:48:57.477Z,10.18
2019-04-01T10:50:02.545Z,8.38
2019-04-01T10:51:07.596Z,8.65
2019-04-01T10:52:12.659Z,8.90
2019-04-01T10:53:17.816Z,9.33
2019-04-01T10:54:23.086Z,8.15
2019-04-01T10:55:28.188Z,8.83
2019-04-01T10:56:35.855Z,8.00
2019-04-01T10:57:46.143Z,8.53
2019-04-01T10:58:51.941Z,8.93
2019-04-01T10:59:56.910Z,8.40
2019-04-01T11:01:01.900Z,8.75
2019-04-01T11:02:06.975Z,8.53
2019-04-01T11:03:12.313Z,9.20
2019-04-01T11:04:17.710Z,8.43
2019-04-01T11:05:23.360Z,9.43
2019-04-01T11:06:28.726Z,9.75
2019-04-01T11:07:34.099Z,9.15
2019-04-01T11:08:39.129Z,8.53
2019-04-01T11:09:44.610Z,8.20
2019-04-01T11:10:49.727Z,8.88
2019-04-01T11:11:55.155Z,9.20
2019-04-01T11:13:01.150Z,9.00
2019-04-01T11:14:06.876Z,9.03
2019-04-01T11:15:15.346Z,8.45
2019-04-01T11:16:19.192Z,7.92
2019-04-01T11:17:24.700Z,7.72
2019-04-01T11:18:30.292Z,7.80
2019-04-01T11:19:35.862Z,8.10
2019-04-01T11:20:40.928Z,9.00
2019-04-01T11:21:45.928Z,8.58
2019-04-01T11:22:50.955Z,10.10
2019-04-01T11:23:56.055Z,8.68
2019-04-01T11:25:01.284Z,8.63
2019-04-01T11:26:06.632Z,8.95
2019-04-01T11:27:11.760Z,10.55
2019-04-01T11:28:16.731Z,8.70
2019-04-01T11:29:25.515Z,8.23
2019-04-01T11:30:28.940Z,8.90
2019-04-01T11:31:35.095Z,9.20
2019-04-01T11:32:43.039Z,9.83
2019-04-01T11:33:48.178Z,8.88
2019-04-01T11:34:56.055Z,9.10
2019-04-01T11:36:00.813Z,9.48
2019-04-01T11:37:06.362Z,9.50
2019-04-01T11:38:13.011Z,10.50
2019-04-01T11:39:18.665Z,9.53
2019-04-01T11:40:24.278Z,9.88
2019-04-01T11:41:29.629Z,9.68
2019-04-01T11:42:35.294Z,9.23
2019-04-01T11:43:40.340Z,9.20
2019-04-01T11:44:45.599Z,8.85
2019-04-01T11:45:50.633Z,9.30
2019-04-01T11:46:56.293Z,10.00
2019-04-01T11:48:01.335Z,8.90
2019-04-01T11:49:06.860Z,9.18
2019-04-01T11:50:12.488Z,8.70
2019-04-01T11:51:32.052Z,8.98
2019-04-01T11:52:24.607Z,8.53
2019-04-01T11:53:29.633Z,8.35
2019-04-01T11:54:34.759Z,9.58
2019-04-01T11:55:39.812Z,10.35
2019-04-01T11:56:46.449Z,9.65
2019-04-01T11:57:51.611Z,9.15
2019-04-01T11:58:57.099Z,10.40
2019-04-01T12:01:19.110Z,8.93
2019-04-01T12:02:24.288Z,8.60
2019-04-01T12:03:29.625Z,9.38
2019-04-01T12:04:39.776Z,9.63
2019-04-01T12:05:45.056Z,9.45
2019-04-01T12:06:50.392Z,8.83
2019-04-01T12:07:55.668Z,9.80
2019-04-01T12:09:01.071Z,9.25
2019-04-01T12:10:07.713Z,9.40
2019-04-01T12:11:13.099Z,9.50
2019-04-01T12:12:24.113Z,8.63
2019-04-01T12:13:24.907Z,9.15
2019-04-01T12:14:29.964Z,9.93
2019-04-01T12:15:35.174Z,8.88
2019-04-01T12:16:40.156Z,10.43
2019-04-01T12:17:45.457Z,9.55
2019-04-01T12:18:51.261Z,9.00
2019-04-01T12:19:56.865Z,10.08
2019-04-01T12:21:02.223Z,10.23
2019-04-01T12:22:07.287Z,9.00
2019-04-01T12:23:12.298Z,10.38
2019-04-01T12:24:17.742Z,11.22
2019-04-01T12:25:22.752Z,9.95
2019-04-01T12:26:27.952Z,9.00
2019-04-01T12:27:32.868Z,9.63
2019-04-01T12:28:37.891Z,9.30
2019-04-01T12:29:42.936Z,8.20
2019-04-01T12:30:48.454Z,10.25
2019-04-01T12:31:53.579Z,9.38
2019-04-01T12:32:58.602Z,10.35
2019-04-01T12:34:04.112Z,9.83
2019-04-01T12:35:11.005Z,10.03
2019-04-01T12:36:16.361Z,8.65
2019-04-01T12:37:21.368Z,8.93
2019-04-01T12:38:26.371Z,8.45
2019-04-01T12:39:31.348Z,9.68
2019-04-01T12:40:36.640Z,9.13
2019-04-01T12:41:41.872Z,9.23
2019-04-01T12:42:50.600Z,9.50
2019-04-01T12:43:53.770Z,9.95
2019-04-01T12:44:58.807Z,8.48
2019-04-01T12:46:04.393Z,8.45
2019-04-01T12:47:09.436Z,9.50
2019-04-01T12:48:14.544Z,9.48
2019-04-01T12:49:19.662Z,8.85
2019-04-01T12:50:24.782Z,10.15
2019-04-01T12:51:30.424Z,9.63
2019-04-01T12:52:35.542Z,9.05
2019-04-01T12:53:40.941Z,8.58
2019-04-01T12:54:46.316Z,9.53
2019-04-01T12:55:51.384Z,9.38
2019-04-01T12:56:56.817Z,8.98
2019-04-01T12:58:02.096Z,9.78
2019-04-01T12:59:07.240Z,9.23
2019-04-01T13:00:13.772Z,8.25
2019-04-01T13:01:20.424Z,9.78
2019-04-01T13:02:25.648Z,7.75
2019-04-01T13:03:30.719Z,8.25
2019-04-01T13:04:36.307Z,10.93
2019-04-01T13:05:41.865Z,8.65
2019-04-01T13:06:46.984Z,8.35
2019-04-01T13:07:54.121Z,8.95
2019-04-01T13:09:00.284Z,11.15
2019-04-01T13:10:06.750Z,9.58
2019-04-01T13:11:12.629Z,8.93
2019-04-01T13:12:18.216Z,8.40
2019-04-01T13:13:23.264Z,9.45
2019-04-01T13:14:28.422Z,8.25
2019-04-01T13:15:33.831Z,8.18
2019-04-01T13:16:39.261Z,8.90
2019-04-01T13:17:44.286Z,9.68
2019-04-01T13:18:50.006Z,9.08
2019-04-01T13:19:55.099Z,8.28
2019-04-01T13:21:00.172Z,8.58
2019-04-01T13:22:06.129Z,9.98
2019-04-01T13:23:11.175Z,8.83
2019-04-01T13:24:16.176Z,9.43
2019-04-01T13:25:21.199Z,9.03
2019-04-01T13:26:26.290Z,10.32
2019-04-01T13:27:31.521Z,9.88
2019-04-01T13:28:36.458Z,9.70
2019-04-01T13:29:41.460Z,9.38
2019-04-01T13:30:46.760Z,7.70
2019-04-01T13:31:51.918Z,9.35
2019-04-01T13:32:57.103Z,9.43
2019-04-01T13:34:02.104Z,8.58
2019-04-01T13:35:07.537Z,8.93
2019-04-01T13:36:12.570Z,10.78
2019-04-01T13:37:18.368Z,9.40
2019-04-01T13:38:24.255Z,9.28
2019-04-01T13:39:29.340Z,9.53
2019-04-01T13:40:34.436Z,9.30
2019-04-01T13:41:42.758Z,8.53
2019-04-01T13:42:46.616Z,9.40
2019-04-01T13:43:51.882Z,9.73
2019-04-01T13:44:57.203Z,8.73
2019-04-01T13:46:02.498Z,8.93
2019-04-01T13:47:07.524Z,10.80
2019-04-01T13:48:13.114Z,8.13
2019-04-01T13:49:18.447Z,8.98
2019-04-01T13:50:23.505Z,9.85
2019-04-01T13:51:28.616Z,9.05
2019-04-01T13:52:35.229Z,9.35
2019-04-01T13:53:40.447Z,10.95
2019-04-01T13:54:45.838Z,8.83
2019-04-01T13:55:51.164Z,9.83
2019-04-01T13:56:56.537Z,9.55
2019-04-01T13:58:01.742Z,9.18
2019-04-01T13:59:09.719Z,8.98
2019-04-01T14:00:14.846Z,8.55
2019-04-01T14:01:19.894Z,9.35
2019-04-01T14:02:26.613Z,9.45
2019-04-01T14:03:31.816Z,9.93
2019-04-01T14:04:37.120Z,10.00
2019-04-01T14:05:42.253Z,9.75
2019-04-01T14:06:47.387Z,10.08
2019-04-01T14:07:52.850Z,9.00
2019-04-01T14:09:00.507Z,10.58
2019-04-01T14:10:05.520Z,10.72
2019-04-01T14:11:10.564Z,9.90
2019-04-01T14:12:15.715Z,9.13
2019-04-01T14:13:20.773Z,9.65
2019-04-01T14:14:26.095Z,9.30
2019-04-01T14:15:31.197Z,9.30
2019-04-01T14:16:36.279Z,9.20
2019-04-01T14:17:41.327Z,9.00
2019-04-01T14:18:46.348Z,9.30
2019-04-01T14:19:51.606Z,8.35
2019-04-01T14:20:56.600Z,8.38
2019-04-01T14:22:01.848Z,9.40
2019-04-01T14:23:06.811Z,10.63
2019-04-01T14:24:12.116Z,9.13
2019-04-01T14:25:17.341Z,9.45
2019-04-01T14:26:22.655Z,10.03
2019-04-01T14:27:27.691Z,9.73
2019-04-01T14:28:32.700Z,8.88
2019-04-01T14:29:37.890Z,9.88
2019-04-01T14:30:43.511Z,10.82